UKLR/RWN METAR and TAF weather

Enter ICAO airport designator
Station Type Date Time Source
UKLR METAR 2022/01/18 06:30 UTC NOAA

UKLR 180630Z 30009MPS 9999 BKN028 M02/M06 Q1016 NOSIG


Station Type Date Time Source
UKLR Decoded METAR 2022/01/18 06:30 UTC NOAA

Rivne, Ukraine (UKLR) 50-35N 026-08E
Jan 18, 2022 - 01:30 AM EST / 2022.01.18 0630 UTC
Wind: from the WNW (300 degrees) at 20 MPH (17 KT):0
Visibility: greater than 7 mile(s):0
Sky conditions: mostly cloudy
Temperature: 28 F (-2 C)
Windchill: 14 F (-10 C):1
Dew Point: 21 F (-6 C)
Relative Humidity: 74%
Pressure (altimeter): 30.00 in. Hg (1016 hPa)
ob: UKLR 180630Z 30009MPS 9999 BKN028 M02/M06 Q1016 NOSIG
cycle: 6

Station Type Date Time Source
UKLR TAF 2019/08/16 12:15 UTC NOAA

TAF TAF UKLR 161105Z 1612/1821 35003MPS 9999 BKN020 SCT023CB

Example: see airport list